Saturday, November 18, 2017, 4:36 PM EST
Back to Local

KMMK, Meriden Markham Municipal Airport

Location: Meriden, CT, United States Lat: 41.517
Local Time: 4:36 PM EST (21:36 GMT) Lon: -72.833
Time Zone: US/Eastern Elev: 101 ft

Show me the last for .
Show Decoded

2017-11-18 15:53 METAR KMMK 182053Z AUTO 20007KT 10SM -RA BKN075 OVC095 10/05 A2968 RMK AO2
                 RAB1956E26B47 SLP050 P0000 60000 T01000050 56042 =
2017-11-18 14:53 METAR KMMK 181953Z AUTO 00000KT 10SM FEW075 OVC100 08/02 A2970 RMK AO2 RAB25E45
                 SLP057 P0000 T00830017 =
2017-11-18 13:53 METAR KMMK 181853Z AUTO 18004KT 10SM FEW120 07/00 A2975 RMK AO2 SLP076 T00720000
                 =
2017-11-18 12:53 METAR KMMK 181753Z AUTO 16005KT 10SM CLR 06/M02 A2980 RMK AO2 SLP093 T00611017
                 10061 21072 57047 =
2017-11-18 11:53 METAR KMMK 181653Z AUTO 15003KT 10SM FEW110 04/M04 A2984 RMK AO2 PRESFR SLP106
                 T00391039 =
2017-11-18 10:53 METAR KMMK 181553Z AUTO 00000KT 10SM CLR 01/M06 A2990 RMK AO2 SLP126 T00111061 =
2017-11-18 09:53 METAR KMMK 181453Z AUTO 00000KT 10SM CLR M01/M05 A2994 RMK AO2 SLP140 T10061050
                 56019 =
2017-11-18 08:53 METAR KMMK 181353Z AUTO 00000KT 10SM CLR M03/M06 A2995 RMK AO2 SLP143 T10281061
                 =
2017-11-18 07:53 METAR KMMK 181253Z AUTO 00000KT 10SM CLR M04/M07 A2998 RMK AO2 SLP155 T10441067
                 =
2017-11-18 06:53 METAR KMMK 181153Z AUTO 00000KT 10SM CLR M07/M08 A2999 RMK AO2 SLP158 I1000
                 I6000 T10671078 11044 21072 57006 =
2017-11-18 05:53 METAR KMMK 181053Z AUTO 00000KT 10SM CLR M06/M07 A3000 RMK AO2 SLP159 I1000
                 T10561072 =
2017-11-18 04:53 METAR KMMK 180953Z AUTO 00000KT 10SM CLR M06/M07 A3001 RMK AO2 SLP163 I1000
                 T10561067 =
2017-11-18 03:53 METAR KMMK 180853Z AUTO 00000KT 10SM CLR M06/M07 A3001 RMK AO2 SLP164 I1000
                 I3000 T10561072 58010 =
2017-11-18 02:53 METAR KMMK 180753Z AUTO 00000KT 10SM CLR M05/M07 A3001 RMK AO2 SLP165 I1000
                 T10501067 =
2017-11-18 01:53 METAR KMMK 180653Z AUTO 20003KT 10SM CLR M06/M07 A3004 RMK AO2 SLP174 T10561072
                 =
2017-11-18 00:53 METAR KMMK 180553Z AUTO 00000KT 10SM FEW120 M05/M07 A3004 RMK AO2 SLP174
                 T10501067 10017 21056 50001 =
2017-11-17 23:53 METAR KMMK 180453Z AUTO 00000KT 10SM CLR M06/M07 A3005 RMK AO2 SLP177 T10561072
                 400721056 =
2017-11-17 22:53 METAR KMMK 180353Z AUTO 00000KT 10SM CLR M04/M07 A3005 RMK AO2 SLP176 T10391072
                 =
2017-11-17 21:53 METAR KMMK 180253Z AUTO 00000KT 10SM CLR M03/M07 A3004 RMK AO2 SLP173 T10331067
                 58003 =
2017-11-17 20:53 METAR KMMK 180153Z AUTO 00000KT 10SM CLR M03/M07 A3005 RMK AO2 SLP178 T10281067
                 =
2017-11-17 19:53 METAR KMMK 180053Z AUTO 16004KT 10SM CLR M02/M07 A3005 RMK AO2 SLP177 T10171067
                 =
2017-11-17 18:53 METAR KMMK 172353Z AUTO 00000KT 10SM CLR 02/M08 A3005 RMK AO2 SLP176 T00171078
                 10072 20011 51008 =
2017-11-17 17:53 METAR KMMK 172253Z AUTO 33004KT 10SM CLR 03/M09 A3004 RMK AO2 SLP174 T00331094 =
2017-11-17 16:53 METAR KMMK 172153Z AUTO 00000KT 10SM CLR 05/M10 A3004 RMK AO2 SLP172 T00501100 =

Support USWX by starting your Amazon purchase here.